createdAt,value
2023-01-22T00:01:19.824Z,5.18
2023-01-22T00:03:50.416Z,4.65
2023-01-22T00:06:17.574Z,5.55
2023-01-22T00:08:44.851Z,7.25
2023-01-22T00:11:12.451Z,6.28
2023-01-22T00:13:39.781Z,5.88
2023-01-22T00:16:07.564Z,7.15
2023-01-22T00:18:35.123Z,4.57
2023-01-22T00:21:02.291Z,6.28
2023-01-22T00:23:29.307Z,5.00
2023-01-22T00:26:12.855Z,6.22
2023-01-22T00:28:42.648Z,4.63
2023-01-22T00:31:12.040Z,6.32
2023-01-22T00:33:41.446Z,8.07
2023-01-22T00:36:11.272Z,7.47
2023-01-22T00:38:38.423Z,4.60
2023-01-22T00:41:10.335Z,4.97
2023-01-22T00:43:40.969Z,5.68
2023-01-22T00:46:09.961Z,5.75
2023-01-22T00:48:39.859Z,3.50
2023-01-22T00:51:09.919Z,3.33
2023-01-22T00:53:37.576Z,4.20
2023-01-22T00:56:06.014Z,4.13
2023-01-22T00:58:33.190Z,2.50
2023-01-22T01:01:03.847Z,2.58
2023-01-22T01:03:33.400Z,5.30
2023-01-22T01:06:07.591Z,6.85
2023-01-22T01:08:42.517Z,8.32
2023-01-22T01:11:22.861Z,8.57
2023-01-22T01:13:51.493Z,11.52
2023-01-22T01:16:31.897Z,11.10
2023-01-22T01:19:00.586Z,11.75
2023-01-22T01:21:28.701Z,12.63
2023-01-22T01:23:58.614Z,11.07
2023-01-22T01:26:26.213Z,10.27
2023-01-22T01:28:53.450Z,4.38
2023-01-22T01:31:22.659Z,4.90
2023-01-22T01:33:49.960Z,6.72
2023-01-22T01:36:46.315Z,4.05
2023-01-22T01:39:13.562Z,3.92
2023-01-22T01:41:40.673Z,4.65
2023-01-22T01:44:17.844Z,3.92
2023-01-22T01:46:48.848Z,2.25
2023-01-22T01:49:28.257Z,2.67
2023-01-22T01:52:00.177Z,2.63
2023-01-22T01:54:28.082Z,2.15
2023-01-22T01:57:00.996Z,1.73
2023-01-22T01:59:27.982Z,2.53
2023-01-22T02:01:55.940Z,1.55
2023-01-22T02:04:24.460Z,2.40
2023-01-22T02:06:51.425Z,2.38
2023-01-22T02:09:18.628Z,4.22
2023-01-22T02:11:45.684Z,3.17
2023-01-22T02:14:16.673Z,3.63
2023-01-22T02:16:43.749Z,2.08
2023-01-22T02:19:10.727Z,1.73
2023-01-22T02:21:44.715Z,2.15
2023-01-22T02:24:14.080Z,3.08
2023-01-22T02:26:42.302Z,4.57
2023-01-22T02:29:11.606Z,1.40
2023-01-22T02:31:40.282Z,2.55
2023-01-22T02:34:09.298Z,2.35
2023-01-22T02:36:37.620Z,1.50
2023-01-22T02:39:05.228Z,2.67
2023-01-22T02:41:35.373Z,2.30
2023-01-22T02:44:02.597Z,6.55
2023-01-22T02:46:30.643Z,1.65
2023-01-22T02:48:57.609Z,1.70
2023-01-22T02:51:26.771Z,2.05
2023-01-22T02:53:54.234Z,2.80
2023-01-22T02:56:21.551Z,1.80
2023-01-22T02:58:48.729Z,2.67
2023-01-22T03:01:21.647Z,1.98
2023-01-22T03:03:53.095Z,1.38
2023-01-22T03:06:25.177Z,1.83
2023-01-22T03:09:00.925Z,1.60
2023-01-22T03:11:30.677Z,2.83
2023-01-22T03:14:23.664Z,2.60
2023-01-22T03:17:12.040Z,2.47
2023-01-22T03:19:57.709Z,1.77
2023-01-22T03:22:24.889Z,2.00
2023-01-22T03:24:53.113Z,2.55
2023-01-22T03:27:24.516Z,5.10
2023-01-22T03:29:51.499Z,3.70
2023-01-22T03:32:20.048Z,4.18
2023-01-22T03:34:46.904Z,4.57
2023-01-22T03:37:14.500Z,6.28
2023-01-22T03:39:44.037Z,6.97
2023-01-22T03:42:17.279Z,3.33
2023-01-22T03:44:45.107Z,4.63
2023-01-22T03:47:12.327Z,3.97
2023-01-22T03:49:39.262Z,2.97
2023-01-22T03:52:06.473Z,3.53
2023-01-22T03:54:33.712Z,4.15
2023-01-22T03:57:03.497Z,5.22
2023-01-22T03:59:33.559Z,3.03
2023-01-22T04:02:03.560Z,3.15
2023-01-22T04:04:36.163Z,5.05
2023-01-22T04:09:30.105Z,11.52
2023-01-22T04:11:58.408Z,5.28
2023-01-22T04:14:26.541Z,5.38
2023-01-22T04:17:00.609Z,4.05
2023-01-22T04:19:40.910Z,4.30
2023-01-22T04:22:13.220Z,2.65
2023-01-22T04:24:40.521Z,2.38
2023-01-22T04:27:07.697Z,4.70
2023-01-22T04:29:34.841Z,3.30
2023-01-22T04:32:04.186Z,5.32
2023-01-22T04:34:50.281Z,5.15
2023-01-22T04:37:23.487Z,3.42
2023-01-22T04:39:52.920Z,4.60
2023-01-22T04:42:21.164Z,3.83
2023-01-22T04:44:48.469Z,1.88
2023-01-22T04:47:15.912Z,6.32
2023-01-22T04:49:43.288Z,2.05
2023-01-22T04:52:13.910Z,2.15
2023-01-22T04:54:40.858Z,1.75
2023-01-22T04:57:08.051Z,2.10
2023-01-22T04:59:34.948Z,3.92
2023-01-22T05:02:02.963Z,2.60
2023-01-22T05:04:31.300Z,3.92
2023-01-22T05:06:58.370Z,2.40
2023-01-22T05:09:26.350Z,4.13
2023-01-22T05:11:57.385Z,4.03
2023-01-22T05:14:25.293Z,1.98
2023-01-22T05:16:52.258Z,3.10
2023-01-22T05:19:23.184Z,3.10
2023-01-22T05:21:50.348Z,4.13
2023-01-22T05:24:18.680Z,4.35
2023-01-22T05:26:46.206Z,5.25
2023-01-22T05:29:18.226Z,2.75
2023-01-22T05:31:57.998Z,3.08
2023-01-22T05:34:31.015Z,3.05
2023-01-22T05:37:00.797Z,3.45
2023-01-22T05:39:30.361Z,6.00
2023-01-22T05:41:59.712Z,5.32
2023-01-22T05:44:26.988Z,5.82
2023-01-22T05:46:55.411Z,5.07
2023-01-22T05:49:24.922Z,4.53
2023-01-22T05:51:55.644Z,4.82
2023-01-22T05:54:22.629Z,4.68
2023-01-22T05:56:50.784Z,3.03
2023-01-22T05:59:20.520Z,4.55
2023-01-22T06:02:00.893Z,3.85
2023-01-22T06:04:30.666Z,4.75
2023-01-22T06:07:06.956Z,6.53
2023-01-22T06:09:33.935Z,4.75
2023-01-22T06:12:00.954Z,6.45
2023-01-22T06:14:27.931Z,4.35
2023-01-22T06:16:57.556Z,6.50
2023-01-22T06:19:34.034Z,6.28
2023-01-22T06:22:01.436Z,4.50
2023-01-22T06:24:51.605Z,9.80
2023-01-22T06:27:24.281Z,10.10
2023-01-22T06:29:57.931Z,6.80
2023-01-22T06:32:26.257Z,8.88
2023-01-22T06:34:53.541Z,4.82
2023-01-22T06:37:22.022Z,7.03
2023-01-22T06:39:49.920Z,9.07
2023-01-22T06:42:26.615Z,5.95
2023-01-22T06:44:53.832Z,4.70
2023-01-22T06:47:23.797Z,9.50
2023-01-22T06:49:50.857Z,8.35
2023-01-22T06:52:20.968Z,7.88
2023-01-22T06:54:47.883Z,8.93
2023-01-22T06:57:14.913Z,5.45
2023-01-22T06:59:44.591Z,9.20
2023-01-22T07:02:18.823Z,8.80
2023-01-22T07:04:46.076Z,6.72
2023-01-22T07:07:14.543Z,8.50
2023-01-22T07:09:41.583Z,10.52
2023-01-22T07:12:08.904Z,8.18
2023-01-22T07:14:37.544Z,7.47
2023-01-22T07:17:05.057Z,8.32
2023-01-22T07:19:33.424Z,9.55
2023-01-22T07:22:00.321Z,8.80
2023-01-22T07:24:27.404Z,7.85
2023-01-22T07:26:54.239Z,5.32
2023-01-22T07:29:21.141Z,11.73
2023-01-22T07:31:49.759Z,7.93
2023-01-22T07:34:17.000Z,9.65
2023-01-22T07:36:44.077Z,8.98
2023-01-22T07:39:11.324Z,9.10
2023-01-22T07:41:38.366Z,6.13
2023-01-22T07:44:12.016Z,7.32
2023-01-22T07:46:41.831Z,9.35
2023-01-22T07:49:08.859Z,11.35
2023-01-22T07:51:35.852Z,7.85
2023-01-22T07:54:03.415Z,7.95
2023-01-22T07:56:30.508Z,6.03
2023-01-22T07:58:57.559Z,8.48
2023-01-22T08:01:24.543Z,11.18
2023-01-22T08:03:51.572Z,12.25
2023-01-22T08:06:22.425Z,8.45
2023-01-22T08:08:50.176Z,7.22
2023-01-22T08:11:17.266Z,8.43
2023-01-22T08:13:44.448Z,6.10
2023-01-22T08:16:11.673Z,7.75
2023-01-22T08:18:38.711Z,5.90
2023-01-22T08:21:06.136Z,6.05
2023-01-22T08:23:33.564Z,3.92
2023-01-22T08:26:01.967Z,4.65
2023-01-22T08:28:29.040Z,10.63
2023-01-22T08:31:01.266Z,10.05
2023-01-22T08:33:32.160Z,9.10
2023-01-22T08:36:04.573Z,11.20
2023-01-22T08:38:31.730Z,10.65
2023-01-22T08:41:02.187Z,11.38
2023-01-22T08:43:30.188Z,14.25
2023-01-22T08:45:57.408Z,15.95
2023-01-22T08:48:26.699Z,19.20
2023-01-22T08:50:53.821Z,22.20
2023-01-22T08:53:20.887Z,18.83
2023-01-22T08:55:54.221Z,22.05
2023-01-22T08:58:22.370Z,17.77
2023-01-22T09:00:49.629Z,23.38
2023-01-22T09:03:26.957Z,21.77
2023-01-22T09:05:54.584Z,19.55
2023-01-22T09:08:27.184Z,20.95
2023-01-22T09:10:54.188Z,18.40
2023-01-22T09:13:21.411Z,24.27
2023-01-22T09:15:50.939Z,21.38
2023-01-22T09:18:20.518Z,16.58
2023-01-22T09:20:50.857Z,21.52
2023-01-22T09:23:18.046Z,20.70
2023-01-22T09:25:45.151Z,19.88
2023-01-22T09:28:12.540Z,17.95
2023-01-22T09:30:41.366Z,19.27
2023-01-22T09:33:08.966Z,18.33
2023-01-22T09:35:36.161Z,18.00
2023-01-22T09:38:03.816Z,19.25
2023-01-22T09:40:42.483Z,18.45
2023-01-22T09:43:18.805Z,16.40
2023-01-22T09:45:51.317Z,16.88
2023-01-22T09:48:19.925Z,9.05
2023-01-22T09:50:51.072Z,9.38
2023-01-22T09:53:19.964Z,7.30
2023-01-22T09:55:50.367Z,7.97
2023-01-22T09:58:22.983Z,6.93
2023-01-22T10:01:04.711Z,8.15
2023-01-22T10:03:46.477Z,5.30
2023-01-22T10:06:24.992Z,5.38
2023-01-22T10:09:10.285Z,7.63
2023-01-22T10:11:40.997Z,5.20
2023-01-22T10:14:10.079Z,7.53
2023-01-22T10:16:37.509Z,10.68
2023-01-22T10:19:16.057Z,3.78
2023-01-22T10:21:49.522Z,3.20
2023-01-22T10:24:19.736Z,2.70
2023-01-22T10:26:54.495Z,3.65
2023-01-22T10:29:29.952Z,4.55
2023-01-22T10:31:59.985Z,8.68
2023-01-22T10:34:36.934Z,4.97
2023-01-22T10:37:14.697Z,7.40
2023-01-22T10:39:47.718Z,4.63
2023-01-22T10:42:25.850Z,6.13
2023-01-22T10:44:59.874Z,5.28
2023-01-22T10:47:29.252Z,4.65
2023-01-22T10:50:23.197Z,4.50
2023-01-22T10:52:53.873Z,6.07
2023-01-22T10:55:26.922Z,4.18
2023-01-22T10:58:05.180Z,4.10
2023-01-22T11:00:46.661Z,3.53
2023-01-22T11:03:23.412Z,3.10
2023-01-22T11:05:54.881Z,5.13
2023-01-22T11:08:32.341Z,4.22
2023-01-22T11:11:06.054Z,6.05
2023-01-22T11:13:36.021Z,4.57
2023-01-22T11:16:12.400Z,3.88
2023-01-22T11:18:42.976Z,4.35
2023-01-22T11:21:19.163Z,3.70
2023-01-22T11:24:05.271Z,2.85
2023-01-22T11:26:35.207Z,4.15
2023-01-22T11:29:36.455Z,3.53
2023-01-22T11:32:15.244Z,5.97
2023-01-22T11:35:20.061Z,3.78
2023-01-22T11:38:04.488Z,4.43
2023-01-22T11:40:33.722Z,5.70
2023-01-22T11:43:19.038Z,4.60
2023-01-22T11:46:05.245Z,5.72
2023-01-22T11:48:32.219Z,5.13
2023-01-22T11:51:08.221Z,4.05
2023-01-22T11:53:58.989Z,5.18
2023-01-22T11:56:44.624Z,5.65
2023-01-22T11:59:37.721Z,4.53
2023-01-22T12:02:38.239Z,3.90
2023-01-22T12:05:34.432Z,4.55
2023-01-22T12:08:28.737Z,4.30
2023-01-22T12:11:30.312Z,2.78
2023-01-22T12:14:19.409Z,2.92
2023-01-22T12:16:54.972Z,3.70
2023-01-22T12:19:34.318Z,4.03
2023-01-22T12:22:18.038Z,5.72
2023-01-22T12:24:50.699Z,3.33
2023-01-22T12:27:27.563Z,4.70
2023-01-22T12:30:32.135Z,5.47
2023-01-22T12:33:03.135Z,4.25
2023-01-22T12:35:32.170Z,4.75
2023-01-22T12:38:17.307Z,3.70
2023-01-22T12:41:11.522Z,3.00
2023-01-22T12:43:47.625Z,4.65
2023-01-22T12:46:27.024Z,3.10
2023-01-22T12:49:01.843Z,3.67
2023-01-22T12:51:41.110Z,4.45
2023-01-22T12:54:26.283Z,5.68
2023-01-22T12:57:23.086Z,6.05
2023-01-22T12:59:57.902Z,3.13
2023-01-22T13:02:24.923Z,3.17
2023-01-22T13:04:52.769Z,3.95
2023-01-22T13:07:25.641Z,2.53
2023-01-22T13:10:21.622Z,3.15
2023-01-22T13:12:51.329Z,2.50
2023-01-22T13:15:30.127Z,3.13
2023-01-22T13:18:15.928Z,5.65
2023-01-22T13:21:03.530Z,2.65
2023-01-22T13:23:34.296Z,3.05
2023-01-22T13:26:01.955Z,2.65
2023-01-22T13:28:29.150Z,2.05
2023-01-22T13:31:04.435Z,3.08
2023-01-22T13:33:31.979Z,2.90
2023-01-22T13:35:59.096Z,4.00
2023-01-22T13:38:32.364Z,2.95
2023-01-22T13:41:07.593Z,2.00
2023-01-22T13:43:35.735Z,2.67
2023-01-22T13:46:03.633Z,2.42
2023-01-22T13:48:30.892Z,2.60
2023-01-22T13:51:01.985Z,4.45
2023-01-22T13:53:31.970Z,4.15
2023-01-22T13:56:02.256Z,3.83
2023-01-22T13:58:48.250Z,2.95
2023-01-22T14:01:30.049Z,3.58
2023-01-22T14:04:02.604Z,2.92
2023-01-22T14:06:30.194Z,3.25
2023-01-22T14:08:58.130Z,4.57
2023-01-22T14:11:25.201Z,2.50
2023-01-22T14:13:53.474Z,4.47
2023-01-22T14:16:20.773Z,4.63
2023-01-22T14:18:47.750Z,2.78
2023-01-22T14:21:15.119Z,2.75
2023-01-22T14:23:42.915Z,3.55
2023-01-22T14:26:10.072Z,4.60
2023-01-22T14:28:37.265Z,5.18
2023-01-22T14:31:05.210Z,3.38
2023-01-22T14:33:34.353Z,5.35
2023-01-22T14:36:01.609Z,3.88
2023-01-22T14:38:28.753Z,5.10
2023-01-22T14:40:56.065Z,3.05
2023-01-22T14:43:23.440Z,4.13
2023-01-22T14:45:55.839Z,3.42
2023-01-22T14:48:23.232Z,4.32
2023-01-22T14:50:50.670Z,2.15
2023-01-22T14:53:25.162Z,5.30
2023-01-22T14:55:54.569Z,4.43
2023-01-22T14:58:21.639Z,4.47
2023-01-22T15:00:51.589Z,5.00
2023-01-22T15:03:18.684Z,4.00
2023-01-22T15:05:45.702Z,6.72
2023-01-22T15:08:12.756Z,5.88
2023-01-22T15:10:41.878Z,4.18
2023-01-22T15:13:08.818Z,6.32
2023-01-22T15:15:35.871Z,5.72
2023-01-22T15:18:03.069Z,6.75
2023-01-22T15:20:30.081Z,6.20
2023-01-22T15:22:57.116Z,5.32
2023-01-22T15:25:24.082Z,7.88
2023-01-22T15:27:51.035Z,8.85
2023-01-22T15:30:20.423Z,7.07
2023-01-22T15:32:47.680Z,7.70
2023-01-22T15:35:14.920Z,6.45
2023-01-22T15:37:42.061Z,5.05
2023-01-22T15:40:10.426Z,4.78
2023-01-22T15:42:37.611Z,3.03
2023-01-22T15:45:05.282Z,4.32
2023-01-22T15:47:32.745Z,4.45
2023-01-22T15:49:59.790Z,4.15
2023-01-22T15:52:26.935Z,8.23
2023-01-22T15:54:54.129Z,8.40
2023-01-22T15:57:21.220Z,7.28
2023-01-22T15:59:48.345Z,7.05
2023-01-22T16:02:19.805Z,6.63
2023-01-22T16:04:46.888Z,5.88
2023-01-22T16:07:13.883Z,7.70
2023-01-22T16:09:40.821Z,6.25
2023-01-22T16:12:09.212Z,6.40
2023-01-22T16:14:36.260Z,9.13
2023-01-22T16:17:03.402Z,8.27
2023-01-22T16:19:30.691Z,6.55
2023-01-22T16:22:03.650Z,7.82
2023-01-22T16:24:30.677Z,1.88
2023-01-22T16:26:57.694Z,8.77
2023-01-22T16:29:28.969Z,10.68
2023-01-22T16:31:56.254Z,9.05
2023-01-22T16:34:23.489Z,9.13
2023-01-22T16:36:50.574Z,14.13
2023-01-22T16:39:22.692Z,8.20
2023-01-22T16:41:51.310Z,9.35
2023-01-22T16:46:49.675Z,9.45
2023-01-22T16:49:18.976Z,9.57
2023-01-22T16:51:48.534Z,5.03
2023-01-22T16:54:20.538Z,9.00
2023-01-22T16:56:48.238Z,7.03
2023-01-22T16:59:15.801Z,8.57
2023-01-22T17:01:42.904Z,8.48
2023-01-22T17:04:10.180Z,8.07
2023-01-22T17:06:48.791Z,8.43
2023-01-22T17:09:18.475Z,7.93
2023-01-22T17:11:52.348Z,5.65
2023-01-22T17:14:23.796Z,7.45
2023-01-22T17:16:51.269Z,6.88
2023-01-22T17:19:19.751Z,7.25
2023-01-22T17:21:47.261Z,9.52
2023-01-22T17:24:14.563Z,8.80
2023-01-22T17:26:42.332Z,7.15
2023-01-22T17:29:09.963Z,9.48
2023-01-22T17:31:37.754Z,7.78
2023-01-22T17:34:08.760Z,7.78
2023-01-22T17:36:35.914Z,7.95
2023-01-22T17:39:05.818Z,4.45
2023-01-22T17:41:32.994Z,7.05
2023-01-22T17:44:00.236Z,7.13
2023-01-22T17:46:29.964Z,9.80
2023-01-22T17:48:57.069Z,6.82
2023-01-22T17:51:28.784Z,9.85
2023-01-22T17:53:57.549Z,9.50
2023-01-22T17:56:27.168Z,8.05
2023-01-22T17:58:56.597Z,11.35
2023-01-22T18:01:25.753Z,7.22
2023-01-22T18:03:52.845Z,8.32
2023-01-22T18:06:20.001Z,7.07
2023-01-22T18:08:50.004Z,7.65
2023-01-22T18:11:20.569Z,6.20
2023-01-22T18:13:48.003Z,9.05
2023-01-22T18:16:16.600Z,8.63
2023-01-22T18:18:53.168Z,8.10
2023-01-22T18:21:23.313Z,9.63
2023-01-22T18:23:50.705Z,9.70
2023-01-22T18:26:22.947Z,9.82
2023-01-22T18:28:51.363Z,9.65
2023-01-22T18:31:21.584Z,9.57
2023-01-22T18:33:51.227Z,10.90
2023-01-22T18:36:22.085Z,10.93
2023-01-22T18:38:49.448Z,10.48
2023-01-22T18:41:19.877Z,9.55
2023-01-22T18:43:48.474Z,12.05
2023-01-22T18:48:43.333Z,11.45
2023-01-22T18:51:13.558Z,11.77
2023-01-22T18:53:42.050Z,14.07
2023-01-22T18:56:13.391Z,9.15
2023-01-22T18:58:43.748Z,8.13
2023-01-22T19:01:14.654Z,8.40
2023-01-22T19:03:43.236Z,9.18
2023-01-22T19:06:16.378Z,10.10
2023-01-22T19:08:45.362Z,7.97
2023-01-22T19:11:13.807Z,9.32
2023-01-22T19:13:42.037Z,9.88
2023-01-22T19:16:11.324Z,9.20
2023-01-22T19:18:48.979Z,7.65
2023-01-22T19:21:19.608Z,10.40
2023-01-22T19:23:49.370Z,10.80
2023-01-22T19:26:22.391Z,10.73
2023-01-22T19:28:51.871Z,8.85
2023-01-22T19:31:22.399Z,10.73
2023-01-22T19:33:51.263Z,10.02
2023-01-22T19:36:31.580Z,10.07
2023-01-22T19:39:00.639Z,10.23
2023-01-22T19:41:28.385Z,7.40
2023-01-22T19:43:57.232Z,8.63
2023-01-22T19:46:26.303Z,9.82
2023-01-22T19:48:56.258Z,8.48
2023-01-22T19:51:24.977Z,10.70
2023-01-22T19:53:52.018Z,10.20
2023-01-22T19:56:21.892Z,9.10
2023-01-22T19:58:49.919Z,6.28
2023-01-22T20:01:17.645Z,9.57
2023-01-22T20:03:44.740Z,8.52
2023-01-22T20:06:15.203Z,7.07
2023-01-22T20:08:42.444Z,6.28
2023-01-22T20:11:10.930Z,8.30
2023-01-22T20:13:39.015Z,9.57
2023-01-22T20:16:07.030Z,8.88
2023-01-22T20:18:35.178Z,9.68
2023-01-22T20:21:06.823Z,6.55
2023-01-22T20:23:35.986Z,8.02
2023-01-22T20:26:07.749Z,9.13
2023-01-22T20:28:35.660Z,11.18
2023-01-22T20:31:04.910Z,11.02
2023-01-22T20:33:32.761Z,6.47
2023-01-22T20:36:20.688Z,10.30
2023-01-22T20:39:03.601Z,8.13
2023-01-22T20:42:01.113Z,6.68
2023-01-22T20:44:44.423Z,7.70
2023-01-22T20:50:14.361Z,8.27
2023-01-22T20:52:41.419Z,7.22
2023-01-22T20:55:10.172Z,8.40
2023-01-22T21:00:05.931Z,8.57
2023-01-22T21:02:33.014Z,7.13
2023-01-22T21:05:00.362Z,9.07
2023-01-22T21:07:27.338Z,10.65
2023-01-22T21:09:55.562Z,8.68
2023-01-22T21:12:22.659Z,9.25
2023-01-22T21:14:53.674Z,5.65
2023-01-22T21:17:23.904Z,5.47
2023-01-22T21:19:52.030Z,6.45
2023-01-22T21:22:19.137Z,5.10
2023-01-22T21:24:48.919Z,5.95
2023-01-22T21:27:15.961Z,5.80
2023-01-22T21:29:45.518Z,4.68
2023-01-22T21:32:12.591Z,5.85
2023-01-22T21:34:40.493Z,7.38
2023-01-22T21:37:09.828Z,7.45
2023-01-22T21:39:45.178Z,9.00
2023-01-22T21:42:31.727Z,7.30
2023-01-22T21:45:18.999Z,9.77
2023-01-22T21:47:45.856Z,7.30
2023-01-22T21:50:14.072Z,6.75
2023-01-22T21:52:42.954Z,6.38
2023-01-22T21:55:11.842Z,5.22
2023-01-22T21:57:38.895Z,7.30
2023-01-22T22:00:06.450Z,5.93
2023-01-22T22:02:33.580Z,8.00
2023-01-22T22:05:01.068Z,5.65
2023-01-22T22:07:28.023Z,6.00
2023-01-22T22:09:55.000Z,6.47
2023-01-22T22:12:22.155Z,5.30
2023-01-22T22:14:49.256Z,3.90
2023-01-22T22:17:17.046Z,5.28
2023-01-22T22:19:44.116Z,4.85
2023-01-22T22:22:11.143Z,7.22
2023-01-22T22:24:42.271Z,5.32
2023-01-22T22:27:09.432Z,8.40
2023-01-22T22:29:45.286Z,4.50
2023-01-22T22:32:12.439Z,5.35
2023-01-22T22:34:39.504Z,8.27
2023-01-22T22:37:06.659Z,5.28
2023-01-22T22:39:33.626Z,3.60
2023-01-22T22:42:00.646Z,4.47
2023-01-22T22:44:27.592Z,4.20
2023-01-22T22:46:54.580Z,5.63
2023-01-22T22:49:21.547Z,3.25
2023-01-22T22:51:48.657Z,5.70
2023-01-22T22:54:18.462Z,3.97
2023-01-22T22:56:48.965Z,6.45
2023-01-22T22:59:18.678Z,4.45
2023-01-22T23:01:45.723Z,4.97
2023-01-22T23:04:13.271Z,5.80
2023-01-22T23:06:45.408Z,4.25
2023-01-22T23:09:17.521Z,4.07
2023-01-22T23:11:44.581Z,6.80
2023-01-22T23:14:12.245Z,4.80
2023-01-22T23:16:41.714Z,5.25
2023-01-22T23:19:13.356Z,3.38
2023-01-22T23:21:41.814Z,7.13
2023-01-22T23:24:10.781Z,4.40
2023-01-22T23:26:38.862Z,4.18
2023-01-22T23:29:08.153Z,2.53
2023-01-22T23:31:36.486Z,5.30
2023-01-22T23:34:09.948Z,3.85
2023-01-22T23:36:37.103Z,3.47
2023-01-22T23:39:04.548Z,4.57
2023-01-22T23:41:31.627Z,4.70
2023-01-22T23:43:58.662Z,4.78
2023-01-22T23:46:27.540Z,6.30
2023-01-22T23:48:58.238Z,3.63
2023-01-22T23:51:26.144Z,3.00
2023-01-22T23:53:53.674Z,6.25
2023-01-22T23:56:26.379Z,3.55
2023-01-22T23:58:54.767Z,3.55
